Погода Алта Флорестана неделю

Мату-Гросу, Бразилия

19 - 25 июня
  • 19июня
    Сегодня
    +19°
    +36°
    Ясно и безоблачно
    ВремяПогодаТемператураВлажностьДавлениеВетер, м/сВероятность осадков
    02:00Ясно и безоблачно+21°C73 %741 мм2.1 м/с5 %
    05:00Ясно и безоблачно+20°C77 %742 мм2.2 м/с5 %
    08:00Ясно и безоблачно+27°C63 %744 мм1.6 м/с5 %
    11:00Ясно и безоблачно+34°C36 %744 мм3.5 м/с5 %
    14:00Ясно и безоблачно+36°C31 %741 мм2.4 м/с5 %
    17:00Ясно и безоблачно+30°C41 %740 мм2.2 м/с5 %
    20:00Ясно и безоблачно+27°C46 %741 мм3.1 м/с5 %
    23:00Ясно и безоблачно+22°C55 %742 мм2.8 м/с5 %
  • 20июня
    Четверг
    +20°
    +37°
    Облачно с прояснениями
    ВремяПогодаТемператураВлажностьДавлениеВетер, м/сВероятность осадков
    02:00Ясно и безоблачно+21°C60 %741 мм2.9 м/с5 %
    05:00Практически безоблачно+19°C62 %741 мм2.5 м/с5 %
    08:00Небольшая облачность+27°C58 %743 мм1.6 м/с5 %
    11:00Облачно с прояснениями+34°C35 %743 мм3.1 м/с5 %
    14:00Облачно с прояснениями+36°C27 %741 мм2.7 м/с5 %
    17:00Практически безоблачно+30°C50 %740 мм1.1 м/с5 %
    20:00Ясно и безоблачно+27°C46 %740 мм2.1 м/с5 %
    23:00Ясно и безоблачно+23°C56 %741 мм1.7 м/с5 %
  • 21июня
    Пятница
    +20°
    +37°
    Небольшая облачность
    ВремяПогодаТемператураВлажностьДавлениеВетер, м/сВероятность осадков
    02:00Ясно и безоблачно+21°C63 %741 мм2.1 м/с5 %
    05:00Ясно и безоблачно+20°C69 %741 мм2.0 м/с5 %
    08:00Ясно и безоблачно+28°C59 %743 мм1.6 м/с5 %
    11:00Ясно и безоблачно+35°C36 %743 мм2.9 м/с5 %
    14:00Небольшая облачность+36°C30 %741 мм2.0 м/с5 %
    17:00Ясно и безоблачно+30°C38 %740 мм2.1 м/с5 %
    20:00Ясно и безоблачно+27°C45 %740 мм2.6 м/с5 %
    23:00Ясно и безоблачно+23°C51 %741 мм2.7 м/с5 %
  • 22июня
    Суббота
    +20°
    +37°
    Облачно с прояснениями
    ВремяПогодаТемператураВлажностьДавлениеВетер, м/сВероятность осадков
    02:00Ясно и безоблачно+22°C59 %741 мм1.6 м/с5 %
    05:00Практически безоблачно+20°C68 %741 мм2.4 м/с5 %
    08:00Ясно и безоблачно+28°C59 %743 мм1.1 м/с5 %
    11:00Небольшая облачность+35°C33 %743 мм2.4 м/с5 %
    14:00Облачно с прояснениями+37°C25 %740 мм1.5 м/с5 %
    17:00Облачно с прояснениями+30°C39 %740 мм1.3 м/с5 %
    20:00Пасмурно, сплошная облачность+26°C50 %741 мм1.4 м/с5 %
    23:00Облачно с прояснениями+24°C54 %741 мм0.7 м/с5 %
  • 23июня
    Воскресенье
    +22°
    +37°
    Небольшая облачность
    ВремяПогодаТемператураВлажностьДавлениеВетер, м/сВероятность осадков
    02:00Ясно и безоблачно+23°C54 %741 мм0.8 м/с5 %
    05:00Небольшая облачность+21°C64 %741 мм2.3 м/с5 %
    08:00Ясно и безоблачно+28°C53 %743 мм1.3 м/с5 %
    11:00Ясно и безоблачно+35°C32 %743 мм1.6 м/с5 %
    14:00Небольшая облачность+36°C26 %740 мм0.8 м/с5 %
    17:00Ясно и безоблачно+31°C44 %740 мм1.8 м/с5 %
    20:00Ясно и безоблачно+25°C54 %741 мм0.7 м/с5 %
    23:00Пасмурно, сплошная облачность+26°C57 %741 мм1.7 м/с5 %
Мы используем cookies
Соглашаюсь